Time;durP1;ratioP1;P1;durP2;ratioP2;P2;SDS_P1;SDS_P2;PMS_P1;PMS_P2;Temp;Humidity;BMP_temperature;BMP_pressure;BME280_temperature;BME280_humidity;BME280_pressure;Samples;Min_cycle;Max_cycle;Signal;HPM_P1;HPM_P2
2023/10/19 00:00:21;;;;;;;38.40;19.20;;;;;;;7.74;71.69;100472.23;124945;1102;102168;-84
2023/10/19 00:03:14;;;;;;;40.57;19.57;;;;;;;7.72;71.57;100468.67;124774;1102;104179;-84
2023/10/19 00:05:46;;;;;;;41.73;21.40;;;;;;;7.70;71.55;100467.72;124896;1102;104185;-83
2023/10/19 00:08:20;;;;;;;39.77;20.07;;;;;;;7.65;71.50;100466.58;124837;1100;101999;-84
2023/10/19 00:11:02;;;;;;;40.73;19.95;;;;;;;7.60;71.41;100468.09;124900;1102;102316;-83
2023/10/19 00:13:35;;;;;;;39.50;20.20;;;;;;;7.55;71.66;100468.76;124796;1102;104198;-83
2023/10/19 00:16:11;;;;;;;43.50;21.57;;;;;;;7.49;71.91;100455.41;125869;1102;104217;-83
2023/10/19 00:18:44;;;;;;;45.20;22.40;;;;;;;7.46;71.52;100454.38;124783;1102;102717;-83
2023/10/19 00:21:20;;;;;;;41.73;21.77;;;;;;;7.37;71.85;100455.75;124778;1102;104207;-82
2023/10/19 00:23:56;;;;;;;46.70;22.67;;;;;;;7.30;71.92;100463.20;124770;1102;101961;-83
2023/10/19 00:26:30;;;;;;;42.70;22.93;;;;;;;7.25;71.55;100462.98;124867;1102;102112;-83
2023/10/19 00:29:14;;;;;;;48.27;22.07;;;;;;;7.21;71.78;100458.42;124855;1102;102086;-82
2023/10/19 00:31:46;;;;;;;39.30;19.83;;;;;;;7.16;71.79;100458.20;124865;1102;102090;-82
2023/10/19 00:34:21;;;;;;;40.60;22.00;;;;;;;7.09;71.71;100450.91;126019;1101;102006;-83
2023/10/19 00:36:54;;;;;;;40.40;20.10;;;;;;;7.05;71.72;100455.91;124776;1102;102053;-84
2023/10/19 00:39:27;;;;;;;46.48;21.12;;;;;;;6.94;71.81;100444.94;124807;1102;101902;-84
2023/10/19 00:41:58;;;;;;;41.70;20.40;;;;;;;7.00;71.66;100453.07;124805;1102;102193;-83
2023/10/19 00:44:37;;;;;;;44.33;20.97;;;;;;;6.97;71.91;100455.53;124846;1101;101836;-83
2023/10/19 00:47:12;;;;;;;44.50;20.60;;;;;;;6.97;72.10;100447.70;124907;1102;101921;-84
2023/10/19 00:49:44;;;;;;;41.80;20.27;;;;;;;6.96;72.23;100446.78;124927;1102;101964;-82
2023/10/19 00:52:19;;;;;;;41.50;19.83;;;;;;;6.93;71.92;100444.02;124914;1102;104239;-83
2023/10/19 00:54:55;;;;;;;40.33;19.10;;;;;;;6.93;71.96;100445.75;124841;1102;104233;-83
2023/10/19 00:57:34;;;;;;;37.77;18.77;;;;;;;6.92;72.16;100438.73;124868;1102;102037;-82
2023/10/19 01:00:12;;;;;;;38.03;17.73;;;;;;;6.90;72.28;100438.66;124862;1102;104227;-83
2023/10/19 01:02:45;;;;;;;36.60;18.37;;;;;;;6.92;72.20;100438.73;124723;1102;102230;-83
2023/10/19 01:05:21;;;;;;;39.80;19.60;;;;;;;6.90;72.41;100432.55;124873;1102;101772;-84
2023/10/19 01:07:57;;;;;;;43.15;19.75;;;;;;;6.90;72.48;100436.05;124860;1102;101819;-84
2023/10/19 01:10:30;;;;;;;40.73;19.30;;;;;;;6.89;72.49;100439.49;124826;1102;104188;-83
2023/10/19 01:13:01;;;;;;;37.00;19.77;;;;;;;6.86;72.36;100436.73;124839;1102;102195;-84
2023/10/19 01:15:36;;;;;;;39.97;19.00;;;;;;;6.83;72.50;100447.02;124792;1102;104188;-84
2023/10/19 01:18:13;;;;;;;37.77;18.30;;;;;;;6.79;72.31;100445.98;125951;1101;102040;-85
2023/10/19 01:20:50;;;;;;;39.85;18.65;;;;;;;6.75;72.48;100440.53;124799;1102;103299;-84
2023/10/19 01:23:25;;;;;;;39.17;18.87;;;;;;;6.69;72.43;100443.72;124789;1102;102233;-83
2023/10/19 01:26:05;;;;;;;39.97;19.73;;;;;;;6.64;72.44;100447.81;124687;1102;104220;-84
2023/10/19 01:28:47;;;;;;;36.43;18.97;;;;;;;6.62;72.58;100436.39;124835;1102;104175;-83
2023/10/19 01:31:30;;;;;;;40.33;19.67;;;;;;;6.60;72.54;100438.03;124890;1102;104224;-83
2023/10/19 01:34:05;;;;;;;42.87;20.00;;;;;;;6.62;72.65;100432.09;124799;1102;104207;-82
2023/10/19 01:36:42;;;;;;;37.90;19.40;;;;;;;6.60;72.59;100430.21;124838;1102;104287;-82
2023/10/19 01:39:13;;;;;;;39.33;19.53;;;;;;;6.59;72.60;100425.80;124803;1102;104736;-83
2023/10/19 01:41:45;;;;;;;37.90;17.97;;;;;;;6.56;72.59;100428.25;124754;1102;101837;-84
2023/10/19 01:44:16;;;;;;;39.83;19.87;;;;;;;6.56;72.41;100430.86;125940;1101;102202;-83
2023/10/19 01:46:48;;;;;;;36.87;18.73;;;;;;;6.53;72.94;100433.31;124824;1102;104222;-82
2023/10/19 01:49:27;;;;;;;36.50;19.57;;;;;;;6.46;73.06;100433.00;126009;1100;101939;-85
2023/10/19 01:52:00;;;;;;;38.17;20.00;;;;;;;6.36;72.68;100433.37;124824;1101;104201;-85
2023/10/19 01:54:31;;;;;;;42.50;20.53;;;;;;;6.28;72.68;100432.09;124865;1100;104307;-84
2023/10/19 01:57:05;;;;;;;39.83;21.10;;;;;;;6.29;72.90;100436.45;124855;1102;104086;-85
2023/10/19 01:59:37;;;;;;;36.53;21.45;;;;;;;6.25;72.64;100438.02;124845;1102;102720;-84
2023/10/19 02:02:11;;;;;;;36.08;21.82;;;;;;;6.25;72.83;100437.14;124795;1102;101852;-84
2023/10/19 02:04:44;;;;;;;36.93;20.97;;;;;;;6.24;73.11;100435.33;124737;1100;104322;-84
2023/10/19 02:07:18;;;;;;;36.13;20.60;;;;;;;6.21;72.95;100437.78;125392;1101;101849;-84
2023/10/19 02:09:50;;;;;;;33.37;19.17;;;;;;;6.14;72.95;100440.87;124792;1102;104316;-84
2023/10/19 02:12:22;;;;;;;31.00;17.17;;;;;;;6.09;72.86;100441.55;124923;1102;104237;-85
2023/10/19 02:14:54;;;;;;;37.53;18.27;;;;;;;5.99;73.09;100439.25;124832;1102;104248;-86
2023/10/19 02:17:26;;;;;;;31.00;17.37;;;;;;;5.83;73.18;100441.80;124834;1100;104264;-85
2023/10/19 02:19:58;;;;;;;34.20;18.40;;;;;;;5.79;73.34;100437.27;124902;1102;104294;-84
2023/10/19 02:22:29;;;;;;;34.07;17.97;;;;;;;5.76;73.46;100443.19;124805;1102;104348;-85
2023/10/19 02:25:01;;;;;;;30.40;17.40;;;;;;;5.73;73.18;100441.34;124947;1102;104277;-84
2023/10/19 02:27:32;;;;;;;35.20;18.93;;;;;;;5.74;73.09;100442.22;124835;1102;102029;-86
2023/10/19 02:30:09;;;;;;;33.87;18.10;;;;;;;5.73;73.45;100435.22;124726;1102;104214;-85
2023/10/19 02:32:43;;;;;;;37.60;17.80;;;;;;;5.65;73.13;100432.20;124740;1101;102232;-84
2023/10/19 02:35:15;;;;;;;36.20;18.53;;;;;;;5.57;73.30;100438.70;124819;1102;102232;-85
2023/10/19 02:37:46;;;;;;;33.53;18.47;;;;;;;5.50;73.58;100433.95;126014;1101;104258;-85
2023/10/19 02:40:21;;;;;;;34.23;18.83;;;;;;;5.56;73.58;100431.69;125981;1100;101832;-86
2023/10/19 02:42:53;;;;;;;34.30;18.20;;;;;;;5.59;73.48;100442.27;125220;1102;102028;-86
2023/10/19 02:45:24;;;;;;;37.67;18.90;;;;;;;5.59;73.29;100439.67;124897;1102;104063;-85
2023/10/19 02:47:56;;;;;;;36.17;18.63;;;;;;;5.60;73.40;100436.27;124894;1102;104291;-85
2023/10/19 02:50:30;;;;;;;37.63;19.17;;;;;;;5.59;73.62;100437.06;124855;1101;104190;-85
2023/10/19 02:53:04;;;;;;;35.60;18.73;;;;;;;5.57;72.97;100449.11;124982;1101;102743;-86
2023/10/19 02:55:35;;;;;;;36.83;19.17;;;;;;;5.52;73.53;100438.45;125519;1100;103024;-84
2023/10/19 02:58:07;;;;;;;39.25;18.90;;;;;;;5.48;73.53;100439.08;124715;1102;104274;-84
2023/10/19 03:00:40;;;;;;;40.23;19.10;;;;;;;5.46;73.42;100440.71;124825;1102;104182;-85
2023/10/19 03:03:12;;;;;;;36.07;17.80;;;;;;;5.43;73.74;100434.45;124670;1102;101796;-84
2023/10/19 03:05:46;;;;;;;35.47;18.03;;;;;;;5.43;73.83;100439.66;124803;1102;104293;-84
2023/10/19 03:08:19;;;;;;;30.05;17.92;;;;;;;5.43;73.57;100429.25;124842;1102;104172;-84
2023/10/19 03:11:03;;;;;;;33.67;18.07;;;;;;;5.43;73.42;100426.64;124775;1102;104235;-83
2023/10/19 03:13:33;;;;;;;;;;;;;;;5.39;73.50;100421.27;124802;1102;102078;-83
2023/10/19 03:16:07;;;;;;;32.70;16.80;;;;;;;5.35;73.67;100421.91;124765;1102;104341;-84
2023/10/19 03:18:39;;;;;;;29.40;16.70;;;;;;;5.28;73.30;100429.28;124894;1102;102090;-85
2023/10/19 03:21:11;;;;;;;32.37;16.30;;;;;;;5.20;73.32;100428.85;124823;1102;102086;-83
2023/10/19 03:23:42;;;;;;;30.23;16.93;;;;;;;5.18;73.81;100422.68;124876;1102;104095;-84
2023/10/19 03:26:22;;;;;;;28.73;16.47;;;;;;;5.12;73.61;100427.53;124939;1102;102070;-83
2023/10/19 03:28:55;;;;;;;30.27;16.57;;;;;;;5.07;73.72;100424.67;124824;1102;104252;-84
2023/10/19 03:31:27;;;;;;;31.73;16.63;;;;;;;5.03;73.73;100425.30;124859;1100;101810;-83
2023/10/19 03:34:02;;;;;;;32.33;16.73;;;;;;;5.02;73.45;100420.93;124812;1101;104169;-84
2023/10/19 03:36:33;;;;;;;31.33;17.37;;;;;;;5.03;73.60;100418.41;124785;1102;102187;-85
2023/10/19 03:39:11;;;;;;;33.70;16.97;;;;;;;5.07;74.16;100415.98;124860;1102;102096;-85
2023/10/19 03:41:45;;;;;;;30.97;16.50;;;;;;;5.07;73.85;100414.27;124856;1102;104182;-85
2023/10/19 03:44:23;;;;;;;30.83;16.77;;;;;;;5.00;73.89;100418.23;124891;1102;104319;-85
2023/10/19 03:46:57;;;;;;;76.10;19.50;;;;;;;4.97;73.91;100412.87;124933;1101;104329;-85
2023/10/19 03:49:33;;;;;;;39.90;18.65;;;;;;;4.92;73.49;100408.20;124748;1102;104281;-85
2023/10/19 03:54:51;;;;;;;35.13;18.87;;;;;;;4.81;72.79;100404.98;124831;1102;102048;-84
2023/10/19 03:57:24;;;;;;;34.57;18.67;;;;;;;4.71;73.70;100406.17;124885;1102;102132;-84
2023/10/19 03:59:57;;;;;;;36.07;19.17;;;;;;;4.63;73.82;100395.33;124808;1102;102265;-84
2023/10/19 04:02:37;;;;;;;35.03;19.23;;;;;;;4.59;73.61;100395.95;124838;1102;101954;-84
2023/10/19 04:05:14;;;;;;;36.90;18.53;;;;;;;4.60;74.08;100396.87;125920;1102;101830;-83
2023/10/19 04:07:46;;;;;;;36.77;18.60;;;;;;;4.60;73.51;100391.67;124996;1102;101887;-84
2023/10/19 04:10:30;;;;;;;39.97;19.70;;;;;;;4.61;73.48;100389.16;124800;1102;101848;-84
2023/10/19 04:13:09;;;;;;;38.77;19.60;;;;;;;4.62;74.15;100388.33;126069;1100;101994;-81
2023/10/19 04:15:45;;;;;;;33.60;18.77;;;;;;;4.61;73.47;100393.44;125080;1102;107241;-86
2023/10/19 04:18:16;;;;;;;39.63;20.13;;;;;;;4.60;73.48;100389.95;125161;1102;104241;-85
2023/10/19 04:20:56;;;;;;;41.80;20.07;;;;;;;4.54;73.61;100399.99;125070;1102;102172;-84
2023/10/19 04:23:28;;;;;;;39.97;20.70;;;;;;;4.53;73.32;100393.00;125125;1102;104230;-84
2023/10/19 04:26:05;;;;;;;38.13;20.83;;;;;;;4.55;74.20;100401.80;125107;1102;117852;-89
2023/10/19 04:28:41;;;;;;;38.60;20.27;;;;;;;4.58;74.19;100399.37;125019;1102;101837;-87
2023/10/19 04:31:16;;;;;;;67.10;22.80;;;;;;;4.61;73.70;100403.84;125109;1102;104079;-88
2023/10/19 04:33:49;;;;;;;37.20;20.43;;;;;;;4.62;73.88;100405.64;125051;1102;102108;-87
2023/10/19 04:36:22;;;;;;;36.33;20.50;;;;;;;4.64;73.81;100411.81;125812;1100;101837;-87
2023/10/19 04:38:55;;;;;;;38.10;21.17;;;;;;;4.63;73.82;100408.33;127082;1100;101952;-87
2023/10/19 04:41:27;;;;;;;35.90;20.23;;;;;;;4.59;74.17;100411.55;124958;1101;104166;-91
2023/10/19 04:44:00;;;;;;;34.33;19.93;;;;;;;4.56;74.28;100413.96;125479;1101;102709;-85
2023/10/19 04:46:32;;;;;;;40.43;21.30;;;;;;;4.56;74.08;100411.36;124846;1102;109480;-80
2023/10/19 04:49:04;;;;;;;37.83;21.10;;;;;;;4.53;74.25;100412.90;124925;1102;101988;-81
2023/10/19 04:51:38;;;;;;;39.10;21.77;;;;;;;4.54;74.02;100405.20;125993;1100;102103;-78
2023/10/19 04:54:10;;;;;;;38.50;20.80;;;;;;;4.54;74.46;100402.59;125113;1102;102025;-77
2023/10/19 04:56:41;;;;;;;37.60;20.67;;;;;;;4.57;74.79;100407.97;124778;1102;102041;-77
2023/10/19 04:59:13;;;;;;;42.43;22.00;;;;;;;4.63;74.88;100410.92;126778;1100;102021;-82
2023/10/19 05:01:44;;;;;;;45.40;21.20;;;;;;;4.61;74.49;100411.63;124852;1102;102303;-79
2023/10/19 05:04:16;;;;;;;43.10;20.50;;;;;;;4.56;74.13;100402.69;125926;1101;101997;-78
2023/10/19 05:06:48;;;;;;;43.87;20.90;;;;;;;4.53;74.37;100410.30;124710;1102;108647;-81
2023/10/19 05:09:21;;;;;;;44.47;21.77;;;;;;;4.51;74.08;100410.21;124739;1102;104185;-81
2023/10/19 05:11:52;;;;;;;37.83;20.73;;;;;;;4.48;74.30;100407.43;124679;1101;104220;-81
2023/10/19 05:14:24;;;;;;;44.40;21.17;;;;;;;4.46;74.58;100409.05;124850;1102;101852;-79
2023/10/19 05:16:55;;;;;;;40.83;22.77;;;;;;;4.48;74.47;100415.23;124814;1102;104220;-80
2023/10/19 05:19:27;;;;;;;43.93;24.60;;;;;;;4.57;74.79;100422.68;124820;1101;104179;-81
2023/10/19 05:21:58;;;;;;;44.53;23.43;;;;;;;4.58;75.01;100420.17;125885;1100;101795;-76
2023/10/19 05:24:30;;;;;;;50.43;26.50;;;;;;;4.50;74.35;100424.92;124373;1102;104191;-77
2023/10/19 05:27:02;;;;;;;54.70;25.53;;;;;;;4.56;74.65;100421.76;124441;1102;104217;-77
2023/10/19 05:29:35;;;;;;;53.07;24.70;;;;;;;4.54;75.29;100425.98;124732;1100;102359;-79
2023/10/19 05:32:09;;;;;;;56.77;27.37;;;;;;;4.45;75.01;100423.73;124792;1102;104277;-82
2023/10/19 05:34:40;;;;;;;56.45;26.48;;;;;;;4.45;75.28;100425.44;125734;1100;102006;-80
2023/10/19 05:37:12;;;;;;;53.07;26.00;;;;;;;4.41;74.54;100421.78;124907;1102;101871;-80
2023/10/19 05:39:45;;;;;;;54.55;26.35;;;;;;;4.47;74.74;100421.22;124941;1101;104281;-80
2023/10/19 05:42:17;;;;;;;55.50;25.27;;;;;;;4.48;75.03;100417.83;124894;1102;102112;-82
2023/10/19 05:44:49;;;;;;;50.57;25.37;;;;;;;4.49;75.02;100422.23;124879;1102;101957;-79
2023/10/19 05:47:23;;;;;;;48.43;24.40;;;;;;;4.52;74.94;100431.88;124841;1102;104282;-80
2023/10/19 05:49:54;;;;;;;53.13;25.27;;;;;;;4.52;75.55;100427.61;125464;1102;104389;-84
2023/10/19 05:52:25;;;;;;;56.13;26.07;;;;;;;4.58;75.79;100430.56;125974;1102;104192;-78
2023/10/19 05:54:57;;;;;;;53.33;27.10;;;;;;;4.62;75.73;100429.03;124836;1101;104311;-80
2023/10/19 05:57:28;;;;;;;52.93;24.30;;;;;;;4.68;75.87;100425.08;124774;1101;102058;-78
2023/10/19 06:00:00;;;;;;;47.05;24.25;;;;;;;4.74;76.31;100428.86;124596;1102;104175;-77
2023/10/19 06:02:34;;;;;;;43.33;24.20;;;;;;;4.76;76.02;100422.92;124608;1102;104179;-76
2023/10/19 06:05:10;;;;;;;47.13;23.93;;;;;;;4.81;75.65;100426.67;124678;1102;101891;-78
2023/10/19 06:07:41;;;;;;;44.00;23.63;;;;;;;4.85;75.93;100422.56;125138;1102;104188;-76
2023/10/19 06:10:20;;;;;;;44.43;23.10;;;;;;;4.93;76.15;100425.61;124245;1102;104549;-73
2023/10/19 06:12:53;;;;;;;43.33;22.70;;;;;;;5.00;76.17;100427.72;124206;1102;102075;-75
2023/10/19 06:15:28;;;;;;;43.97;24.70;;;;;;;5.11;76.32;100426.65;124405;1102;104268;-75
2023/10/19 06:18:00;;;;;;;44.25;24.30;;;;;;;5.24;76.75;100436.03;124671;1102;104290;-80
2023/10/19 06:20:33;;;;;;;43.43;24.00;;;;;;;5.38;76.90;100429.87;124998;1102;102002;-83
2023/10/19 06:23:07;;;;;;;43.30;24.10;;;;;;;5.47;76.58;100424.30;124857;1102;102182;-82
2023/10/19 06:25:42;;;;;;;46.20;24.17;;;;;;;5.57;76.87;100425.69;124960;1102;104165;-81
2023/10/19 06:28:16;;;;;;;40.87;23.43;;;;;;;5.67;77.02;100425.39;124758;1102;104153;-76
2023/10/19 06:30:50;;;;;;;41.77;23.00;;;;;;;5.83;77.26;100420.97;125829;1101;101795;-76
2023/10/19 06:33:26;;;;;;;42.20;23.00;;;;;;;5.98;76.79;100420.94;124630;1102;104216;-78
2023/10/19 06:35:59;;;;;;;38.57;21.63;;;;;;;6.12;77.20;100414.73;125106;1102;102043;-78
2023/10/19 06:38:34;;;;;;;47.07;23.33;;;;;;;6.20;76.99;100418.66;124740;1102;104195;-77
2023/10/19 06:41:15;;;;;;;40.07;22.30;;;;;;;6.33;77.02;100417.57;124579;1102;101904;-78
2023/10/19 06:43:48;;;;;;;41.90;23.47;;;;;;;6.45;77.07;100410.37;125005;1102;102316;-77
2023/10/19 06:46:27;;;;;;;49.47;26.80;;;;;;;6.58;77.04;100417.09;124633;1102;104341;-77
2023/10/19 06:49:00;;;;;;;51.70;28.30;;;;;;;6.71;77.36;100408.17;125875;1100;107607;-80
2023/10/19 06:51:33;;;;;;;50.37;27.97;;;;;;;6.86;77.27;100409.73;124403;1101;104690;-77
2023/10/19 06:54:08;;;;;;;51.97;29.27;;;;;;;6.98;77.64;100410.34;124593;1102;104242;-80
2023/10/19 06:56:39;;;;;;;59.33;29.73;;;;;;;7.12;77.49;100396.27;125308;1102;102097;-78
2023/10/19 06:59:14;;;;;;;56.67;30.07;;;;;;;7.23;77.56;100401.08;124576;1102;104166;-77
2023/10/19 07:01:46;;;;;;;61.70;32.80;;;;;;;7.31;77.48;100392.80;124642;1102;104188;-77
2023/10/19 07:04:18;;;;;;;59.23;31.37;;;;;;;7.39;77.36;100390.55;124863;1102;104293;-80
2023/10/19 07:06:52;;;;;;;63.60;31.10;;;;;;;7.50;77.67;100389.33;125965;1100;104258;-82
2023/10/19 07:09:24;;;;;;;66.30;31.90;;;;;;;7.64;77.53;100386.47;124777;1102;102074;-79
2023/10/19 07:11:57;;;;;;;59.97;31.43;;;;;;;7.75;77.29;100372.17;124691;1102;104323;-79
2023/10/19 07:14:33;;;;;;;60.50;30.80;;;;;;;7.88;77.68;100374.52;124723;1102;101894;-78
2023/10/19 07:17:03;;;;;;;;;;;;;;;8.02;77.39;100368.98;125841;1100;102114;-77
2023/10/19 07:19:37;;;;;;;54.90;30.73;;;;;;;8.13;77.75;100375.56;124414;1102;104235;-76
2023/10/19 07:22:10;;;;;;;55.55;30.30;;;;;;;8.25;77.41;100370.88;124649;1102;104168;-77
2023/10/19 07:24:47;;;;;;;59.53;30.30;;;;;;;8.39;77.57;100368.84;124488;1102;101921;-76
2023/10/19 07:27:37;;;;;;;53.30;27.07;;;;;;;8.53;77.55;100368.58;124366;1102;104485;-77
2023/10/19 07:30:15;;;;;;;50.73;27.37;;;;;;;8.64;77.91;100362.06;124789;1102;104060;-80
2023/10/19 07:32:58;;;;;;;53.03;28.27;;;;;;;8.78;77.48;100360.89;124784;1101;102947;-80
2023/10/19 07:35:37;;;;;;;48.43;25.80;;;;;;;8.90;77.79;100350.05;126750;1101;102020;-79
2023/10/19 07:38:11;;;;;;;45.30;24.23;;;;;;;9.07;77.37;100352.42;125202;1101;102032;-77
2023/10/19 07:40:48;;;;;;;43.67;21.87;;;;;;;9.23;77.83;100346.96;124522;1102;102331;-79
2023/10/19 07:43:21;;;;;;;42.47;23.13;;;;;;;9.41;77.68;100345.87;125334;1102;102002;-77
2023/10/19 07:45:56;;;;;;;42.87;21.87;;;;;;;9.59;78.16;100349.19;124515;1102;102098;-77
2023/10/19 07:48:27;;;;;;;42.23;21.73;;;;;;;9.77;78.06;100350.69;124702;1100;104281;-77
2023/10/19 07:50:59;;;;;;;49.13;26.20;;;;;;;9.92;77.38;100339.88;124497;1102;104271;-79
2023/10/19 07:53:31;;;;;;;47.80;24.80;;;;;;;10.06;77.80;100342.14;124547;1102;104175;-77
2023/10/19 07:56:03;;;;;;;44.60;22.57;;;;;;;10.21;77.94;100331.30;124603;1102;104185;-77
2023/10/19 07:58:34;;;;;;;41.23;21.27;;;;;;;10.36;77.66;100327.45;124618;1102;104204;-76
2023/10/19 08:01:08;;;;;;;41.25;22.30;;;;;;;10.51;77.24;100324.45;124477;1102;104220;-78
2023/10/19 08:03:40;;;;;;;45.45;23.10;;;;;;;10.62;77.41;100317.81;124514;1102;102248;-75
2023/10/19 08:06:12;;;;;;;44.07;22.63;;;;;;;10.71;77.45;100318.12;124304;1102;104245;-75
2023/10/19 08:08:44;;;;;;;44.23;22.17;;;;;;;10.86;77.37;100301.98;124458;1102;102090;-76
2023/10/19 08:11:16;;;;;;;43.80;22.60;;;;;;;11.01;77.42;100305.91;124268;1101;104214;-78
2023/10/19 08:13:49;;;;;;;38.27;20.60;;;;;;;11.17;77.18;100296.77;124417;1102;104214;-78
2023/10/19 08:16:23;;;;;;;27.58;14.00;;;;;;;11.32;77.55;100292.84;124587;1102;101956;-77
2023/10/19 08:18:55;;;;;;;26.25;11.43;;;;;;;11.55;77.55;100292.62;125820;1100;102086;-81
2023/10/19 08:21:29;;;;;;;22.77;11.07;;;;;;;11.76;77.78;100289.70;124254;1102;104047;-76
2023/10/19 08:24:13;;;;;;;21.23;9.20;;;;;;;11.97;77.42;100286.80;124563;1102;102497;-77
2023/10/19 08:26:47;;;;;;;20.90;8.00;;;;;;;12.19;77.26;100296.14;124662;1102;102238;-81
2023/10/19 08:29:21;;;;;;;16.87;7.77;;;;;;;12.40;77.22;100287.00;125744;1101;104217;-80
2023/10/19 08:31:54;;;;;;;27.37;13.03;;;;;;;12.52;76.91;100276.78;125940;1102;104057;-81
2023/10/19 08:34:30;;;;;;;24.37;12.13;;;;;;;12.68;77.44;100269.25;125475;1102;101930;-77
2023/10/19 08:37:13;;;;;;;15.80;7.03;;;;;;;12.91;76.82;100268.02;124760;1102;104198;-80
2023/10/19 08:39:50;;;;;;;22.03;7.17;;;;;;;13.11;76.83;100270.22;125370;1102;104233;-78
2023/10/19 08:42:34;;;;;;;16.97;7.03;;;;;;;13.32;76.67;100269.77;124613;1102;118687;-78
2023/10/19 08:45:13;;;;;;;15.73;6.20;;;;;;;13.51;75.82;100257.01;124699;1102;104316;-81
2023/10/19 08:47:59;;;;;;;12.47;5.77;;;;;;;13.67;75.50;100269.64;126590;1101;101742;-80
2023/10/19 08:50:43;;;;;;;14.65;6.12;;;;;;;13.82;75.93;100261.11;125518;1102;104172;-81
2023/10/19 08:53:41;;;;;;;;;;;;;;;;;;;;;
2023/10/19 08:56:47;;;;;;;11.50;5.30;;;;;;;14.13;75.39;100243.20;124814;1102;104175;-79
2023/10/19 08:59:28;;;;;;;19.37;5.80;;;;;;;14.29;75.58;100244.34;126185;1101;101791;-82
2023/10/19 09:02:09;;;;;;;15.73;5.63;;;;;;;14.46;74.58;100241.98;125160;1102;102002;-82
2023/10/19 09:04:48;;;;;;;14.13;5.20;;;;;;;14.64;73.60;100230.86;125884;1101;104220;-81
2023/10/19 09:07:25;;;;;;;12.10;4.87;;;;;;;14.80;74.67;100229.31;125216;1102;101921;-76
2023/10/19 09:09:59;;;;;;;10.90;4.70;;;;;;;14.89;73.03;100225.04;124441;1102;104303;-75
2023/10/19 09:12:30;;;;;;;8.93;4.50;;;;;;;14.95;72.17;100226.89;124584;1102;104192;-78
2023/10/19 09:15:04;;;;;;;9.53;4.60;;;;;;;14.92;72.81;100219.80;125875;1101;104150;-79
2023/10/19 09:17:43;;;;;;;11.37;4.50;;;;;;;14.89;71.85;100210.95;125474;1101;102009;-81
2023/10/19 09:20:27;;;;;;;10.43;4.50;;;;;;;15.00;71.22;100209.33;125275;1101;104223;-77
2023/10/19 09:23:02;;;;;;;12.30;4.57;;;;;;;15.15;70.96;100202.49;124848;1102;104175;-77
2023/10/19 09:25:39;;;;;;;7.87;4.00;;;;;;;15.30;70.99;100200.00;125743;1101;104334;-77
2023/10/19 09:28:13;;;;;;;12.37;4.23;;;;;;;15.44;69.54;100195.78;125221;1102;101823;-79
2023/10/19 09:30:49;;;;;;;8.60;3.80;;;;;;;15.56;68.11;100197.65;124765;1102;102017;-82
2023/10/19 09:33:25;;;;;;;;;;;;;;;15.64;68.91;100189.80;125349;1102;104214;-83
2023/10/19 09:36:04;;;;;;;8.43;3.60;;;;;;;15.73;68.41;100170.50;125989;1102;102150;-80
2023/10/19 09:38:39;;;;;;;11.03;4.03;;;;;;;15.81;68.22;100182.94;125299;1102;104271;-79
2023/10/19 09:41:17;;;;;;;6.77;3.60;;;;;;;15.93;66.96;100178.66;125259;1102;102119;-78
2023/10/19 09:43:50;;;;;;;7.73;3.53;;;;;;;16.00;66.57;100161.93;124720;1102;104216;-78
2023/10/19 09:46:29;;;;;;;11.77;4.20;;;;;;;16.10;65.98;100158.50;124950;1102;101851;-78
2023/10/19 09:49:13;;;;;;;9.73;4.13;;;;;;;16.23;65.88;100154.17;124685;1102;101955;-76
2023/10/19 09:51:49;;;;;;;11.43;3.67;;;;;;;16.31;65.46;100157.78;124416;1102;104265;-74
2023/10/19 09:54:34;;;;;;;13.97;3.80;;;;;;;16.39;66.41;100155.16;124312;1102;104172;-73
2023/10/19 09:57:16;;;;;;;12.10;4.30;;;;;;;16.49;64.76;100148.17;124538;1102;104214;-73
2023/10/19 10:00:07;;;;;;;7.93;3.83;;;;;;;16.49;64.23;100133.16;124588;1101;102233;-77
2023/10/19 10:02:46;;;;;;;11.30;3.60;;;;;;;16.62;64.27;100133.23;125204;1102;101948;-78
2023/10/19 10:05:50;;;;;;;11.55;3.85;;;;;;;16.67;64.19;100129.73;124565;1102;102070;-81
2023/10/19 10:08:39;;;;;;;9.10;3.90;;;;;;;16.75;63.60;100119.17;124194;1102;104185;-74
2023/10/19 10:11:29;;;;;;;9.23;3.87;;;;;;;16.82;63.18;100123.60;124392;1102;101850;-76
2023/10/19 10:14:01;;;;;;;11.33;3.60;;;;;;;16.88;63.17;100106.89;124505;1102;102670;-76
2023/10/19 10:16:35;;;;;;;7.60;3.60;;;;;;;16.96;62.52;100104.27;124631;1102;104710;-76
2023/10/19 10:19:08;;;;;;;9.17;3.50;;;;;;;17.00;61.82;100077.78;124439;1102;104335;-74
2023/10/19 10:22:02;;;;;;;6.40;3.50;;;;;;;17.07;60.97;100073.37;124695;1102;102094;-75
2023/10/19 10:24:43;;;;;;;7.70;3.33;;;;;;;17.15;61.46;100073.38;124229;1101;104664;-77
2023/10/19 10:27:19;;;;;;;7.27;3.57;;;;;;;17.20;61.02;100072.52;124688;1102;102025;-78
2023/10/19 10:30:01;;;;;;;6.27;3.47;;;;;;;17.24;60.51;100074.28;124794;1102;104204;-77
2023/10/19 10:32:50;;;;;;;5.77;3.33;;;;;;;17.31;59.38;100061.03;125606;1101;102029;-78
2023/10/19 10:36:00;;;;;;;11.00;3.37;;;;;;;17.40;59.98;100053.08;124894;1102;102315;-76
2023/10/19 10:38:39;;;;;;;8.80;3.20;;;;;;;17.51;60.21;100056.61;124857;1102;104198;-81
2023/10/19 10:41:13;;;;;;;11.43;3.40;;;;;;;17.55;60.07;100047.78;126181;1102;102058;-78
2023/10/19 10:43:57;;;;;;;7.23;3.20;;;;;;;17.60;59.92;100043.35;126118;1101;104299;-82
2023/10/19 10:46:31;;;;;;;5.77;3.00;;;;;;;17.66;59.40;100034.52;125105;1102;101936;-81
2023/10/19 10:49:15;;;;;;;9.90;3.07;;;;;;;17.70;58.10;100044.25;125748;1102;101663;-83
2023/10/19 10:51:51;;;;;;;6.73;3.20;;;;;;;17.72;57.47;100034.52;124780;1102;104274;-80
2023/10/19 10:54:30;;;;;;;5.50;2.63;;;;;;;17.76;57.82;100041.59;125366;1102;102397;-81
2023/10/19 11:00:17;;;;;;;4.67;2.80;;;;;;;17.84;57.67;100032.72;124758;1102;104245;-83
2023/10/19 11:03:07;;;;;;;5.57;3.20;;;;;;;17.88;56.91;100024.78;126295;1101;101679;-78
2023/10/19 11:05:52;;;;;;;7.17;3.10;;;;;;;17.92;56.89;100018.59;125139;1102;104194;-84
2023/10/19 11:08:35;;;;;;;6.70;3.13;;;;;;;17.94;56.14;100007.98;126378;1100;104083;-83
2023/10/19 11:11:11;;;;;;;5.47;2.67;;;;;;;17.99;56.35;100015.93;126027;1100;101951;-79
2023/10/19 11:13:52;;;;;;;7.23;3.20;;;;;;;17.99;55.16;99998.22;125416;1102;104162;-81
2023/10/19 11:16:37;;;;;;;8.50;3.20;;;;;;;18.03;55.63;99997.34;124998;1102;102232;-82
2023/10/19 11:19:39;;;;;;;9.50;3.27;;;;;;;18.05;55.68;99994.67;126274;1100;101846;-80
2023/10/19 11:22:24;;;;;;;8.47;3.20;;;;;;;18.07;54.86;99987.58;125312;1102;104224;-82
2023/10/19 11:25:19;;;;;;;9.30;3.37;;;;;;;18.07;54.67;99987.58;125096;1102;104220;-81
2023/10/19 11:28:18;;;;;;;9.83;3.27;;;;;;;18.07;54.69;99983.14;126228;1100;101939;-79
2023/10/19 11:30:58;;;;;;;6.33;3.23;;;;;;;18.04;52.86;99961.05;125882;1102;102023;-80
2023/10/19 11:33:32;;;;;;;8.77;3.50;;;;;;;18.02;52.60;99971.67;126305;1101;102081;-80
2023/10/19 11:36:23;;;;;;;7.73;3.73;;;;;;;18.02;52.54;99968.14;125895;1102;101612;-85
2023/10/19 11:39:00;;;;;;;21.10;3.57;;;;;;;18.00;51.70;99956.63;126317;1101;102279;-85
2023/10/19 11:41:43;;;;;;;11.00;3.30;;;;;;;18.02;51.31;99961.05;126376;1100;101818;-82
2023/10/19 11:44:32;;;;;;;7.10;3.40;;;;;;;18.03;51.19;99956.61;126347;1100;101775;-83
2023/10/19 11:47:44;;;;;;;7.23;3.10;;;;;;;18.01;51.08;99951.30;125371;1102;110203;-84
2023/10/19 11:50:37;;;;;;;7.97;2.83;;;;;;;18.01;51.02;99945.13;125817;1102;104166;-82